sensor_id;sensor_type;location;lat;lon;timestamp;pressure;altitude;pressure_sealevel;temperature;humidity
55755;BME280;41674;52.290;-1.474;2023-09-18T00:01:10;99673.31;;;21.53;81.44
55755;BME280;41674;52.290;-1.474;2023-09-18T00:03:40;99667.98;;;21.50;82.19
55755;BME280;41674;52.290;-1.474;2023-09-18T00:06:08;99661.72;;;20.85;83.92
55755;BME280;41674;52.290;-1.474;2023-09-18T00:08:39;99657.66;;;21.01;83.48
55755;BME280;41674;52.290;-1.474;2023-09-18T00:11:08;99651.48;;;20.89;84.00
55755;BME280;41674;52.290;-1.474;2023-09-18T00:13:38;99632.72;;;21.04;83.98
55755;BME280;41674;52.290;-1.474;2023-09-18T00:16:07;99617.87;;;21.03;84.01
55755;BME280;41674;52.290;-1.474;2023-09-18T00:18:36;99616.41;;;21.15;84.37
55755;BME280;41674;52.290;-1.474;2023-09-18T00:21:06;99612.50;;;20.62;85.56
55755;BME280;41674;52.290;-1.474;2023-09-18T00:23:35;99615.31;;;20.91;85.31
55755;BME280;41674;52.290;-1.474;2023-09-18T00:26:04;99619.86;;;20.88;85.39
55755;BME280;41674;52.290;-1.474;2023-09-18T00:28:34;99619.48;;;20.85;85.28
55755;BME280;41674;52.290;-1.474;2023-09-18T00:31:03;99612.09;;;20.63;85.08
55755;BME280;41674;52.290;-1.474;2023-09-18T00:33:33;99609.81;;;20.43;85.45
55755;BME280;41674;52.290;-1.474;2023-09-18T00:36:03;99606.97;;;20.03;87.84
55755;BME280;41674;52.290;-1.474;2023-09-18T00:38:32;99612.04;;;19.88;88.26
55755;BME280;41674;52.290;-1.474;2023-09-18T00:41:01;99616.97;;;20.13;88.54
55755;BME280;41674;52.290;-1.474;2023-09-18T00:43:31;99609.57;;;20.34;88.14
55755;BME280;41674;52.290;-1.474;2023-09-18T00:46:01;99599.00;;;20.47;87.77
55755;BME280;41674;52.290;-1.474;2023-09-18T00:48:30;99593.10;;;20.53;87.52
55755;BME280;41674;52.290;-1.474;2023-09-18T00:51:01;99592.25;;;20.35;87.45
55755;BME280;41674;52.290;-1.474;2023-09-18T00:53:30;99580.88;;;20.67;87.18
55755;BME280;41674;52.290;-1.474;2023-09-18T00:56:00;99571.21;;;20.63;87.34
55755;BME280;41674;52.290;-1.474;2023-09-18T00:58:29;99574.61;;;20.65;87.10
55755;BME280;41674;52.290;-1.474;2023-09-18T01:00:58;99579.03;;;20.97;86.99
55755;BME280;41674;52.290;-1.474;2023-09-18T01:03:27;99578.70;;;20.75;87.43
55755;BME280;41674;52.290;-1.474;2023-09-18T01:05:57;99580.06;;;20.68;86.96
55755;BME280;41674;52.290;-1.474;2023-09-18T01:08:26;99580.25;;;20.45;87.81
55755;BME280;41674;52.290;-1.474;2023-09-18T01:11:02;99578.16;;;20.19;88.92
55755;BME280;41674;52.290;-1.474;2023-09-18T01:13:30;99575.64;;;20.01;89.62
55755;BME280;41674;52.290;-1.474;2023-09-18T01:16:00;99577.09;;;20.41;87.92
55755;BME280;41674;52.290;-1.474;2023-09-18T01:18:25;99579.64;;;20.48;88.67
55755;BME280;41674;52.290;-1.474;2023-09-18T01:20:53;99579.09;;;20.90;88.23
55755;BME280;41674;52.290;-1.474;2023-09-18T01:23:26;99574.63;;;20.77;87.88
55755;BME280;41674;52.290;-1.474;2023-09-18T01:25:52;99589.99;;;20.50;89.21
55755;BME280;41674;52.290;-1.474;2023-09-18T01:28:21;99589.79;;;19.02;94.82
55755;BME280;41674;52.290;-1.474;2023-09-18T01:30:51;99570.28;;;18.54;96.89
55755;BME280;41674;52.290;-1.474;2023-09-18T01:33:21;99576.85;;;18.92;94.14
55755;BME280;41674;52.290;-1.474;2023-09-18T01:35:51;99585.08;;;18.37;94.47
55755;BME280;41674;52.290;-1.474;2023-09-18T01:38:21;99568.02;;;18.45;94.44
55755;BME280;41674;52.290;-1.474;2023-09-18T01:40:50;99564.63;;;18.19;93.75
55755;BME280;41674;52.290;-1.474;2023-09-18T01:43:19;99559.30;;;17.67;96.74
55755;BME280;41674;52.290;-1.474;2023-09-18T01:45:49;99553.42;;;17.33;97.06
55755;BME280;41674;52.290;-1.474;2023-09-18T01:48:18;99554.23;;;17.12;96.38
55755;BME280;41674;52.290;-1.474;2023-09-18T01:50:47;99558.22;;;16.72;100.00
55755;BME280;41674;52.290;-1.474;2023-09-18T01:53:17;99547.92;;;15.78;100.00
55755;BME280;41674;52.290;-1.474;2023-09-18T01:55:46;99524.44;;;16.14;100.00
55755;BME280;41674;52.290;-1.474;2023-09-18T01:58:16;99524.47;;;16.51;100.00
55755;BME280;41674;52.290;-1.474;2023-09-18T02:00:45;99521.74;;;16.72;100.00
55755;BME280;41674;52.290;-1.474;2023-09-18T02:03:15;99511.64;;;17.10;100.00
55755;BME280;41674;52.290;-1.474;2023-09-18T02:05:44;99506.27;;;17.79;98.62
55755;BME280;41674;52.290;-1.474;2023-09-18T02:08:14;99499.23;;;17.24;100.00
55755;BME280;41674;52.290;-1.474;2023-09-18T02:10:43;99494.41;;;18.14;99.05
55755;BME280;41674;52.290;-1.474;2023-09-18T02:13:13;99488.43;;;16.32;100.00
55755;BME280;41674;52.290;-1.474;2023-09-18T02:15:43;99488.93;;;16.01;100.00
55755;BME280;41674;52.290;-1.474;2023-09-18T02:18:12;99481.50;;;16.40;100.00
55755;BME280;41674;52.290;-1.474;2023-09-18T02:20:42;99474.75;;;16.55;100.00
55755;BME280;41674;52.290;-1.474;2023-09-18T02:23:11;99474.74;;;16.18;100.00
55755;BME280;41674;52.290;-1.474;2023-09-18T02:25:41;99471.36;;;16.23;100.00
55755;BME280;41674;52.290;-1.474;2023-09-18T02:28:10;99459.29;;;16.29;100.00
55755;BME280;41674;52.290;-1.474;2023-09-18T02:30:39;99457.12;;;16.03;100.00
55755;BME280;41674;52.290;-1.474;2023-09-18T02:33:09;99457.74;;;15.55;100.00
55755;BME280;41674;52.290;-1.474;2023-09-18T02:35:40;99453.61;;;15.82;100.00
55755;BME280;41674;52.290;-1.474;2023-09-18T02:38:08;99439.57;;;16.59;100.00
55755;BME280;41674;52.290;-1.474;2023-09-18T02:40:38;99429.71;;;16.69;100.00
55755;BME280;41674;52.290;-1.474;2023-09-18T02:43:07;99424.90;;;16.50;99.41
55755;BME280;41674;52.290;-1.474;2023-09-18T02:45:37;99422.43;;;16.83;99.10
55755;BME280;41674;52.290;-1.474;2023-09-18T02:48:06;99423.53;;;17.16;96.54
55755;BME280;41674;52.290;-1.474;2023-09-18T02:50:36;99427.18;;;16.98;97.82
55755;BME280;41674;52.290;-1.474;2023-09-18T02:53:06;99426.41;;;16.43;98.92
55755;BME280;41674;52.290;-1.474;2023-09-18T02:55:35;99420.50;;;17.30;97.91
55755;BME280;41674;52.290;-1.474;2023-09-18T02:58:04;99412.82;;;16.85;98.77
55755;BME280;41674;52.290;-1.474;2023-09-18T03:00:34;99412.31;;;17.17;98.14
55755;BME280;41674;52.290;-1.474;2023-09-18T03:03:04;99396.74;;;17.89;95.01
55755;BME280;41674;52.290;-1.474;2023-09-18T03:05:33;99391.74;;;17.53;95.42
55755;BME280;41674;52.290;-1.474;2023-09-18T03:08:03;99389.76;;;17.73;94.82
55755;BME280;41674;52.290;-1.474;2023-09-18T03:10:33;99388.64;;;18.15;94.25
55755;BME280;41674;52.290;-1.474;2023-09-18T03:13:02;99384.67;;;17.12;95.42
55755;BME280;41674;52.290;-1.474;2023-09-18T03:15:31;99380.99;;;17.96;94.75
55755;BME280;41674;52.290;-1.474;2023-09-18T03:18:01;99375.21;;;17.82;94.99
55755;BME280;41674;52.290;-1.474;2023-09-18T03:20:31;99373.55;;;17.85;94.60
55755;BME280;41674;52.290;-1.474;2023-09-18T03:23:01;99379.78;;;17.44;96.18
55755;BME280;41674;52.290;-1.474;2023-09-18T03:25:29;99383.27;;;17.24;96.11
55755;BME280;41674;52.290;-1.474;2023-09-18T03:27:59;99385.41;;;17.29;96.84
55755;BME280;41674;52.290;-1.474;2023-09-18T03:30:29;99379.36;;;17.59;94.76
55755;BME280;41674;52.290;-1.474;2023-09-18T03:32:58;99383.02;;;16.98;99.15
55755;BME280;41674;52.290;-1.474;2023-09-18T03:35:30;99379.22;;;17.84;95.40
55755;BME280;41674;52.290;-1.474;2023-09-18T03:37:57;99384.83;;;17.81;95.17
55755;BME280;41674;52.290;-1.474;2023-09-18T03:40:26;99390.14;;;17.30;97.64
55755;BME280;41674;52.290;-1.474;2023-09-18T03:42:56;99388.48;;;17.06;99.30
55755;BME280;41674;52.290;-1.474;2023-09-18T03:45:25;99387.94;;;16.85;99.89
55755;BME280;41674;52.290;-1.474;2023-09-18T03:50:24;99387.77;;;16.67;100.00
55755;BME280;41674;52.290;-1.474;2023-09-18T03:52:54;99385.75;;;16.41;100.00
55755;BME280;41674;52.290;-1.474;2023-09-18T03:55:23;99379.63;;;16.45;100.00
55755;BME280;41674;52.290;-1.474;2023-09-18T03:57:53;99373.52;;;16.53;100.00
55755;BME280;41674;52.290;-1.474;2023-09-18T04:00:22;99371.60;;;16.12;100.00
55755;BME280;41674;52.290;-1.474;2023-09-18T04:02:52;99371.78;;;16.06;100.00
55755;BME280;41674;52.290;-1.474;2023-09-18T04:05:22;99368.51;;;15.93;100.00
55755;BME280;41674;52.290;-1.474;2023-09-18T04:07:52;99381.83;;;15.37;100.00
55755;BME280;41674;52.290;-1.474;2023-09-18T04:10:20;99377.50;;;15.85;100.00
55755;BME280;41674;52.290;-1.474;2023-09-18T04:12:50;99378.87;;;16.26;100.00
55755;BME280;41674;52.290;-1.474;2023-09-18T04:15:19;99378.98;;;16.00;100.00
55755;BME280;41674;52.290;-1.474;2023-09-18T04:17:49;99371.09;;;16.90;99.50
55755;BME280;41674;52.290;-1.474;2023-09-18T04:20:19;99373.35;;;16.74;97.99
55755;BME280;41674;52.290;-1.474;2023-09-18T04:25:18;99365.22;;;16.93;97.37
55755;BME280;41674;52.290;-1.474;2023-09-18T04:27:47;99364.29;;;16.57;98.97
55755;BME280;41674;52.290;-1.474;2023-09-18T04:30:17;99362.34;;;16.19;100.00
55755;BME280;41674;52.290;-1.474;2023-09-18T04:32:46;99362.86;;;15.63;100.00
55755;BME280;41674;52.290;-1.474;2023-09-18T04:35:16;99360.06;;;16.26;100.00
55755;BME280;41674;52.290;-1.474;2023-09-18T04:37:45;99359.32;;;16.58;98.69
55755;BME280;41674;52.290;-1.474;2023-09-18T04:40:15;99360.24;;;17.23;95.43
55755;BME280;41674;52.290;-1.474;2023-09-18T04:42:44;99359.54;;;17.63;93.99
55755;BME280;41674;52.290;-1.474;2023-09-18T04:45:14;99358.70;;;16.63;96.87
55755;BME280;41674;52.290;-1.474;2023-09-18T04:47:43;99359.09;;;16.30;99.14
55755;BME280;41674;52.290;-1.474;2023-09-18T04:50:13;99359.84;;;16.32;99.58
55755;BME280;41674;52.290;-1.474;2023-09-18T04:52:42;99362.92;;;16.15;98.32
55755;BME280;41674;52.290;-1.474;2023-09-18T04:55:13;99362.61;;;16.57;96.42
55755;BME280;41674;52.290;-1.474;2023-09-18T04:57:41;99360.96;;;16.48;97.82
55755;BME280;41674;52.290;-1.474;2023-09-18T05:00:12;99365.79;;;16.05;99.06
55755;BME280;41674;52.290;-1.474;2023-09-18T05:02:41;99370.13;;;16.08;99.78
55755;BME280;41674;52.290;-1.474;2023-09-18T05:05:10;99364.41;;;16.77;96.14
55755;BME280;41674;52.290;-1.474;2023-09-18T05:07:39;99360.91;;;16.93;95.48
55755;BME280;41674;52.290;-1.474;2023-09-18T05:10:10;99363.53;;;16.33;96.71
55755;BME280;41674;52.290;-1.474;2023-09-18T05:12:39;99362.46;;;16.69;95.99
55755;BME280;41674;52.290;-1.474;2023-09-18T05:15:09;99360.29;;;16.68;95.43
55755;BME280;41674;52.290;-1.474;2023-09-18T05:17:42;99361.18;;;16.64;96.72
55755;BME280;41674;52.290;-1.474;2023-09-18T05:20:08;99363.53;;;15.92;97.44
55755;BME280;41674;52.290;-1.474;2023-09-18T05:22:37;99358.37;;;16.60;95.88
55755;BME280;41674;52.290;-1.474;2023-09-18T05:25:07;99361.61;;;16.31;95.52
55755;BME280;41674;52.290;-1.474;2023-09-18T05:27:36;99360.08;;;16.48;96.22
55755;BME280;41674;52.290;-1.474;2023-09-18T05:30:07;99356.72;;;16.24;95.87
55755;BME280;41674;52.290;-1.474;2023-09-18T05:32:35;99355.22;;;17.16;93.88
55755;BME280;41674;52.290;-1.474;2023-09-18T05:35:05;99359.79;;;16.48;96.35
55755;BME280;41674;52.290;-1.474;2023-09-18T05:37:34;99357.34;;;16.48;96.14
55755;BME280;41674;52.290;-1.474;2023-09-18T05:40:05;99356.62;;;16.30;96.48
55755;BME280;41674;52.290;-1.474;2023-09-18T05:42:33;99354.47;;;16.36;95.16
55755;BME280;41674;52.290;-1.474;2023-09-18T05:45:03;99357.85;;;15.71;96.79
55755;BME280;41674;52.290;-1.474;2023-09-18T05:47:33;99359.31;;;16.25;95.79
55755;BME280;41674;52.290;-1.474;2023-09-18T05:50:02;99356.87;;;16.24;95.45
55755;BME280;41674;52.290;-1.474;2023-09-18T05:52:31;99365.60;;;15.52;99.05
55755;BME280;41674;52.290;-1.474;2023-09-18T05:55:01;99371.40;;;15.01;100.00
55755;BME280;41674;52.290;-1.474;2023-09-18T05:57:30;99366.64;;;15.41;100.00
55755;BME280;41674;52.290;-1.474;2023-09-18T06:00:00;99370.08;;;14.93;100.00
55755;BME280;41674;52.290;-1.474;2023-09-18T06:02:29;99368.83;;;15.33;100.00
55755;BME280;41674;52.290;-1.474;2023-09-18T06:05:00;99368.99;;;14.66;100.00
55755;BME280;41674;52.290;-1.474;2023-09-18T06:07:28;99364.38;;;14.91;100.00
55755;BME280;41674;52.290;-1.474;2023-09-18T06:09:59;99365.44;;;15.39;100.00
55755;BME280;41674;52.290;-1.474;2023-09-18T06:12:27;99367.64;;;15.69;100.00
55755;BME280;41674;52.290;-1.474;2023-09-18T06:14:57;99366.97;;;15.42;100.00
55755;BME280;41674;52.290;-1.474;2023-09-18T06:17:26;99365.69;;;15.66;100.00
55755;BME280;41674;52.290;-1.474;2023-09-18T06:19:56;99363.70;;;15.94;98.34
55755;BME280;41674;52.290;-1.474;2023-09-18T06:22:25;99361.47;;;16.12;97.54
55755;BME280;41674;52.290;-1.474;2023-09-18T06:24:55;99361.26;;;16.16;98.00
55755;BME280;41674;52.290;-1.474;2023-09-18T06:27:24;99356.58;;;16.87;95.17
55755;BME280;41674;52.290;-1.474;2023-09-18T06:29:55;99360.92;;;16.27;95.62
55755;BME280;41674;52.290;-1.474;2023-09-18T06:32:23;99361.86;;;16.31;95.60
55755;BME280;41674;52.290;-1.474;2023-09-18T06:34:53;99361.48;;;15.90;98.77
55755;BME280;41674;52.290;-1.474;2023-09-18T06:37:22;99359.75;;;16.61;95.66
55755;BME280;41674;52.290;-1.474;2023-09-18T06:39:52;99356.20;;;16.14;98.68
55755;BME280;41674;52.290;-1.474;2023-09-18T06:42:21;99357.03;;;16.16;97.17
55755;BME280;41674;52.290;-1.474;2023-09-18T06:44:51;99358.44;;;17.35;93.35
55755;BME280;41674;52.290;-1.474;2023-09-18T06:47:20;99357.11;;;16.75;95.75
55755;BME280;41674;52.290;-1.474;2023-09-18T06:49:50;99359.30;;;16.18;98.48
55755;BME280;41674;52.290;-1.474;2023-09-18T06:52:20;99360.73;;;16.08;100.00
55755;BME280;41674;52.290;-1.474;2023-09-18T06:54:49;99360.38;;;16.13;100.00
55755;BME280;41674;52.290;-1.474;2023-09-18T06:57:19;99360.22;;;16.02;100.00
55755;BME280;41674;52.290;-1.474;2023-09-18T06:59:48;99361.07;;;16.19;100.00
55755;BME280;41674;52.290;-1.474;2023-09-18T07:02:17;99359.20;;;15.66;100.00
55755;BME280;41674;52.290;-1.474;2023-09-18T07:04:47;99357.93;;;16.26;100.00
55755;BME280;41674;52.290;-1.474;2023-09-18T07:07:17;99355.13;;;16.71;100.00
55755;BME280;41674;52.290;-1.474;2023-09-18T07:09:46;99352.16;;;16.30;100.00
55755;BME280;41674;52.290;-1.474;2023-09-18T07:12:15;99350.52;;;16.88;98.39
55755;BME280;41674;52.290;-1.474;2023-09-18T07:14:45;99349.80;;;15.59;100.00
55755;BME280;41674;52.290;-1.474;2023-09-18T07:17:14;99351.44;;;16.66;99.30
55755;BME280;41674;52.290;-1.474;2023-09-18T07:19:44;99351.77;;;16.52;100.00
55755;BME280;41674;52.290;-1.474;2023-09-18T07:22:13;99346.68;;;15.90;100.00
55755;BME280;41674;52.290;-1.474;2023-09-18T07:24:43;99350.11;;;14.86;100.00
55755;BME280;41674;52.290;-1.474;2023-09-18T07:27:12;99344.44;;;16.79;97.49
55755;BME280;41674;52.290;-1.474;2023-09-18T07:29:42;99345.21;;;16.19;99.98
55755;BME280;41674;52.290;-1.474;2023-09-18T07:32:11;99343.23;;;16.78;98.68
55755;BME280;41674;52.290;-1.474;2023-09-18T07:34:40;99338.82;;;16.45;100.00
55755;BME280;41674;52.290;-1.474;2023-09-18T07:37:10;99338.78;;;16.82;100.00
55755;BME280;41674;52.290;-1.474;2023-09-18T07:39:39;99338.08;;;16.29;100.00
55755;BME280;41674;52.290;-1.474;2023-09-18T07:42:08;99333.24;;;16.69;100.00
55755;BME280;41674;52.290;-1.474;2023-09-18T07:44:38;99326.81;;;17.28;98.65
55755;BME280;41674;52.290;-1.474;2023-09-18T07:47:11;99330.87;;;16.55;100.00
55755;BME280;41674;52.290;-1.474;2023-09-18T07:49:37;99328.45;;;17.01;99.34
55755;BME280;41674;52.290;-1.474;2023-09-18T07:52:07;99326.62;;;17.84;97.27
55755;BME280;41674;52.290;-1.474;2023-09-18T07:54:36;99332.19;;;17.44;97.76
55755;BME280;41674;52.290;-1.474;2023-09-18T07:57:06;99332.06;;;17.43;96.27
55755;BME280;41674;52.290;-1.474;2023-09-18T07:59:35;99343.77;;;16.07;100.00
55755;BME280;41674;52.290;-1.474;2023-09-18T08:02:05;99337.22;;;16.25;100.00
55755;BME280;41674;52.290;-1.474;2023-09-18T08:04:34;99340.59;;;15.80;100.00
55755;BME280;41674;52.290;-1.474;2023-09-18T08:07:04;99336.61;;;15.53;100.00
55755;BME280;41674;52.290;-1.474;2023-09-18T08:09:33;99329.71;;;16.60;100.00
55755;BME280;41674;52.290;-1.474;2023-09-18T08:12:03;99329.75;;;16.05;100.00
55755;BME280;41674;52.290;-1.474;2023-09-18T08:14:32;99326.84;;;16.30;100.00
55755;BME280;41674;52.290;-1.474;2023-09-18T08:17:02;99325.21;;;16.50;100.00
55755;BME280;41674;52.290;-1.474;2023-09-18T08:19:31;99321.36;;;16.87;100.00
55755;BME280;41674;52.290;-1.474;2023-09-18T08:22:00;99317.95;;;16.20;100.00
55755;BME280;41674;52.290;-1.474;2023-09-18T08:24:30;99320.58;;;16.32;100.00
55755;BME280;41674;52.290;-1.474;2023-09-18T08:27:00;99315.99;;;16.98;100.00
55755;BME280;41674;52.290;-1.474;2023-09-18T08:29:29;99313.34;;;17.23;100.00
55755;BME280;41674;52.290;-1.474;2023-09-18T08:34:28;99307.47;;;17.23;100.00
55755;BME280;41674;52.290;-1.474;2023-09-18T08:36:58;99308.67;;;15.80;100.00
55755;BME280;41674;52.290;-1.474;2023-09-18T08:39:27;99303.92;;;16.77;100.00
55755;BME280;41674;52.290;-1.474;2023-09-18T08:42:04;99302.49;;;17.15;99.01
55755;BME280;41674;52.290;-1.474;2023-09-18T08:44:27;99302.31;;;17.09;100.00
55755;BME280;41674;52.290;-1.474;2023-09-18T08:46:57;99302.02;;;17.02;98.81
55755;BME280;41674;52.290;-1.474;2023-09-18T08:49:26;99299.83;;;16.70;98.07
55755;BME280;41674;52.290;-1.474;2023-09-18T08:51:55;99296.54;;;17.11;97.90
55755;BME280;41674;52.290;-1.474;2023-09-18T08:54:24;99289.92;;;17.69;97.49
55755;BME280;41674;52.290;-1.474;2023-09-18T08:56:54;99290.48;;;17.51;95.69
55755;BME280;41674;52.290;-1.474;2023-09-18T08:59:25;99289.21;;;17.66;91.11
55755;BME280;41674;52.290;-1.474;2023-09-18T09:01:53;99292.80;;;17.17;89.84
55755;BME280;41674;52.290;-1.474;2023-09-18T09:04:22;99283.84;;;16.99;94.32
55755;BME280;41674;52.290;-1.474;2023-09-18T09:06:51;99282.18;;;17.26;95.92
55755;BME280;41674;52.290;-1.474;2023-09-18T09:09:21;99276.67;;;18.10;92.77
55755;BME280;41674;52.290;-1.474;2023-09-18T09:11:51;99274.85;;;18.11;91.83
55755;BME280;41674;52.290;-1.474;2023-09-18T09:14:20;99271.49;;;18.16;89.11
55755;BME280;41674;52.290;-1.474;2023-09-18T09:16:50;99268.13;;;18.01;91.22
55755;BME280;41674;52.290;-1.474;2023-09-18T09:19:28;99270.13;;;16.71;94.94
55755;BME280;41674;52.290;-1.474;2023-09-18T09:21:48;99269.02;;;17.50;93.48
55755;BME280;41674;52.290;-1.474;2023-09-18T09:26:57;99266.25;;;17.80;93.97
55755;BME280;41674;52.290;-1.474;2023-09-18T09:29:19;99262.93;;;16.97;97.24
55755;BME280;41674;52.290;-1.474;2023-09-18T09:31:47;99261.08;;;17.34;90.90
55755;BME280;41674;52.290;-1.474;2023-09-18T09:34:26;99262.32;;;17.34;92.76
55755;BME280;41674;52.290;-1.474;2023-09-18T09:36:52;99260.46;;;18.23;91.13
55755;BME280;41674;52.290;-1.474;2023-09-18T09:39:15;99257.23;;;18.01;87.93
55755;BME280;41674;52.290;-1.474;2023-09-18T09:41:45;99255.19;;;18.08;89.53
55755;BME280;41674;52.290;-1.474;2023-09-18T09:44:14;99256.42;;;18.61;90.88
55755;BME280;41674;52.290;-1.474;2023-09-18T09:46:47;99254.65;;;18.91;86.79
55755;BME280;41674;52.290;-1.474;2023-09-18T09:49:13;99252.24;;;17.95;87.90
55755;BME280;41674;52.290;-1.474;2023-09-18T09:51:43;99247.55;;;18.24;84.89
55755;BME280;41674;52.290;-1.474;2023-09-18T09:54:12;99239.54;;;18.17;86.71
55755;BME280;41674;52.290;-1.474;2023-09-18T09:56:44;99237.36;;;18.53;85.25
55755;BME280;41674;52.290;-1.474;2023-09-18T09:59:12;99236.41;;;18.46;84.79
55755;BME280;41674;52.290;-1.474;2023-09-18T10:01:41;99230.43;;;19.14;81.63
55755;BME280;41674;52.290;-1.474;2023-09-18T10:04:13;99229.33;;;18.01;84.04
55755;BME280;41674;52.290;-1.474;2023-09-18T10:06:43;99227.38;;;18.12;84.69
55755;BME280;41674;52.290;-1.474;2023-09-18T10:09:11;99231.50;;;18.19;85.41
55755;BME280;41674;52.290;-1.474;2023-09-18T10:11:41;99231.09;;;17.63;86.74
55755;BME280;41674;52.290;-1.474;2023-09-18T10:14:12;99230.72;;;18.68;84.65
55755;BME280;41674;52.290;-1.474;2023-09-18T10:16:40;99231.61;;;17.87;87.41
55755;BME280;41674;52.290;-1.474;2023-09-18T10:19:14;99226.56;;;17.91;88.20
55755;BME280;41674;52.290;-1.474;2023-09-18T10:21:43;99227.93;;;17.97;86.85
55755;BME280;41674;52.290;-1.474;2023-09-18T10:24:13;99228.48;;;18.53;86.25
55755;BME280;41674;52.290;-1.474;2023-09-18T10:26:40;99229.12;;;17.31;91.45
55755;BME280;41674;52.290;-1.474;2023-09-18T10:29:07;99232.95;;;17.43;91.61
55755;BME280;41674;52.290;-1.474;2023-09-18T10:31:36;99233.07;;;17.60;91.89
55755;BME280;41674;52.290;-1.474;2023-09-18T10:34:05;99235.75;;;17.27;91.32
55755;BME280;41674;52.290;-1.474;2023-09-18T10:36:34;99232.68;;;17.14;93.02
55755;BME280;41674;52.290;-1.474;2023-09-18T10:39:03;99231.54;;;17.24;93.18
55755;BME280;41674;52.290;-1.474;2023-09-18T10:41:33;99234.55;;;16.92;93.76
55755;BME280;41674;52.290;-1.474;2023-09-18T10:44:03;99238.58;;;17.81;91.82
55755;BME280;41674;52.290;-1.474;2023-09-18T10:46:32;99239.15;;;17.92;90.54
55755;BME280;41674;52.290;-1.474;2023-09-18T10:49:02;99242.60;;;17.22;94.35
55755;BME280;41674;52.290;-1.474;2023-09-18T10:51:32;99240.25;;;17.44;93.29
55755;BME280;41674;52.290;-1.474;2023-09-18T10:54:01;99242.89;;;17.65;93.04
55755;BME280;41674;52.290;-1.474;2023-09-18T10:56:31;99240.84;;;17.69;92.50
55755;BME280;41674;52.290;-1.474;2023-09-18T10:59:01;99245.91;;;17.06;97.45
55755;BME280;41674;52.290;-1.474;2023-09-18T11:01:29;99250.24;;;16.41;100.00
55755;BME280;41674;52.290;-1.474;2023-09-18T11:04:01;99258.64;;;16.17;100.00
55755;BME280;41674;52.290;-1.474;2023-09-18T11:06:28;99256.27;;;16.20;100.00
55755;BME280;41674;52.290;-1.474;2023-09-18T11:11:27;99255.21;;;16.62;100.00
55755;BME280;41674;52.290;-1.474;2023-09-18T11:13:57;99251.21;;;16.68;100.00
55755;BME280;41674;52.290;-1.474;2023-09-18T11:16:35;99250.61;;;17.66;99.93
55755;BME280;41674;52.290;-1.474;2023-09-18T11:21:26;99252.31;;;16.27;100.00
55755;BME280;41674;52.290;-1.474;2023-09-18T11:24:01;99252.00;;;16.41;100.00
55755;BME280;41674;52.290;-1.474;2023-09-18T11:26:28;99251.27;;;16.22;100.00
55755;BME280;41674;52.290;-1.474;2023-09-18T11:28:54;99253.74;;;16.45;100.00
55755;BME280;41674;52.290;-1.474;2023-09-18T11:33:53;99253.33;;;17.02;100.00
55755;BME280;41674;52.290;-1.474;2023-09-18T11:36:29;99255.67;;;16.55;100.00
55755;BME280;41674;52.290;-1.474;2023-09-18T11:38:53;99252.68;;;16.74;100.00
55755;BME280;41674;52.290;-1.474;2023-09-18T11:41:24;99253.51;;;16.77;100.00
55755;BME280;41674;52.290;-1.474;2023-09-18T11:43:51;99253.41;;;16.55;100.00
55755;BME280;41674;52.290;-1.474;2023-09-18T11:46:21;99256.79;;;16.11;100.00
55755;BME280;41674;52.290;-1.474;2023-09-18T11:48:50;99260.08;;;16.39;100.00
55755;BME280;41674;52.290;-1.474;2023-09-18T11:51:23;99261.26;;;16.91;100.00
55755;BME280;41674;52.290;-1.474;2023-09-18T11:53:53;99264.49;;;17.14;100.00
55755;BME280;41674;52.290;-1.474;2023-09-18T11:56:19;99258.66;;;16.58;100.00
55755;BME280;41674;52.290;-1.474;2023-09-18T11:58:49;99266.67;;;16.19;100.00
55755;BME280;41674;52.290;-1.474;2023-09-18T12:01:18;99266.33;;;16.43;100.00
55755;BME280;41674;52.290;-1.474;2023-09-18T12:03:53;99262.00;;;15.98;100.00
55755;BME280;41674;52.290;-1.474;2023-09-18T12:06:17;99261.26;;;15.94;100.00
55755;BME280;41674;52.290;-1.474;2023-09-18T12:08:46;99265.17;;;16.63;100.00
55755;BME280;41674;52.290;-1.474;2023-09-18T12:11:16;99268.83;;;15.14;100.00
55755;BME280;41674;52.290;-1.474;2023-09-18T12:13:45;99289.16;;;14.74;100.00
55755;BME280;41674;52.290;-1.474;2023-09-18T12:16:15;99288.23;;;14.41;100.00
55755;BME280;41674;52.290;-1.474;2023-09-18T12:18:46;99290.04;;;14.26;100.00
55755;BME280;41674;52.290;-1.474;2023-09-18T12:21:14;99302.02;;;13.82;100.00
55755;BME280;41674;52.290;-1.474;2023-09-18T12:23:44;99303.52;;;14.93;100.00
55755;BME280;41674;52.290;-1.474;2023-09-18T12:26:14;99308.04;;;14.69;100.00
55755;BME280;41674;52.290;-1.474;2023-09-18T12:28:43;99310.54;;;14.38;100.00
55755;BME280;41674;52.290;-1.474;2023-09-18T12:31:12;99319.72;;;14.84;100.00
55755;BME280;41674;52.290;-1.474;2023-09-18T12:33:43;99321.14;;;14.26;98.50
55755;BME280;41674;52.290;-1.474;2023-09-18T12:36:11;99324.22;;;14.87;93.47
55755;BME280;41674;52.290;-1.474;2023-09-18T12:38:40;99326.86;;;14.50;92.98
55755;BME280;41674;52.290;-1.474;2023-09-18T12:41:11;99333.84;;;14.05;94.59
55755;BME280;41674;52.290;-1.474;2023-09-18T12:43:41;99335.10;;;14.01;88.15
55755;BME280;41674;52.290;-1.474;2023-09-18T12:46:10;99341.56;;;13.48;85.05
55755;BME280;41674;52.290;-1.474;2023-09-18T12:48:39;99349.77;;;13.88;87.40
55755;BME280;41674;52.290;-1.474;2023-09-18T12:51:08;99354.97;;;13.79;89.24
55755;BME280;41674;52.290;-1.474;2023-09-18T12:53:38;99363.03;;;14.86;88.41
55755;BME280;41674;52.290;-1.474;2023-09-18T12:56:08;99359.93;;;15.63;85.22
55755;BME280;41674;52.290;-1.474;2023-09-18T12:58:37;99361.74;;;15.87;82.02
55755;BME280;41674;52.290;-1.474;2023-09-18T13:01:08;99358.81;;;16.34;81.94
55755;BME280;41674;52.290;-1.474;2023-09-18T13:03:41;99369.79;;;17.49;79.21
55755;BME280;41674;52.290;-1.474;2023-09-18T13:06:10;99367.05;;;17.75;74.08
55755;BME280;41674;52.290;-1.474;2023-09-18T13:08:35;99371.61;;;16.82;73.86
55755;BME280;41674;52.290;-1.474;2023-09-18T13:13:34;99375.89;;;17.65;76.53
55755;BME280;41674;52.290;-1.474;2023-09-18T13:16:06;99383.68;;;17.41;74.40